KBOK/BOK METAR and TAF weather

Enter ICAO airport designator
Station Type Date Time Source
KBOK METAR 2022/01/19 18:56 UTC NOAA

KBOK 191856Z AUTO 00000KT 10SM CLR 13/11 A3036 RMK AO2 SLP282 T01330111 PNO $


Station Type Date Time Source
KBOK Decoded METAR 2022/01/19 18:56 UTC NOAA

Brookings, Brookings Airport, OR, United States (KBOK) 42-04-28N 124-17-24W
Jan 19, 2022 - 01:56 PM EST / 2022.01.19 1856 UTC
Wind: Calm:0
Visibility: 10 mile(s):0
Sky conditions: clear
Temperature: 55.9 F (13.3 C)
Dew Point: 52.0 F (11.1 C)
Relative Humidity: 86%
Pressure (altimeter): 30.36 in. Hg (1028 hPa)
ob: KBOK 191856Z AUTO 00000KT 10SM CLR 13/11 A3036 RMK AO2 SLP282 T01330111 PNO
cycle: 19

Station Type Date Time Source
KBOK TAF UTC NOAA

Error!

Example: see airport list